createdAt,value
2019-03-27T00:00:09.937Z,10.30
2019-03-27T00:02:40.217Z,10.30
2019-03-27T00:05:09.024Z,10.30
2019-03-27T00:07:37.867Z,10.40
2019-03-27T00:10:08.573Z,10.40
2019-03-27T00:12:37.969Z,10.40
2019-03-27T00:15:13.228Z,10.40
2019-03-27T00:17:39.465Z,10.40
2019-03-27T00:20:10.347Z,10.40
2019-03-27T00:22:39.180Z,10.40
2019-03-27T00:25:09.394Z,10.50
2019-03-27T00:27:38.198Z,10.50
2019-03-27T00:30:11.017Z,10.50
2019-03-27T00:32:39.826Z,10.50
2019-03-27T00:35:08.732Z,10.40
2019-03-27T00:37:37.554Z,10.40
2019-03-27T00:40:07.784Z,10.30
2019-03-27T00:42:36.603Z,10.30
2019-03-27T00:45:07.706Z,10.30
2019-03-27T00:47:36.512Z,10.30
2019-03-27T00:50:09.115Z,10.20
2019-03-27T00:52:37.948Z,10.20
2019-03-27T00:55:07.865Z,10.20
2019-03-27T00:57:36.674Z,10.10
2019-03-27T01:00:25.115Z,10.00
2019-03-27T01:02:53.923Z,10.00
2019-03-27T01:05:22.929Z,9.90
2019-03-27T01:07:51.761Z,9.90
2019-03-27T01:10:20.553Z,9.90
2019-03-27T01:12:49.350Z,9.90
2019-03-27T01:15:18.177Z,9.80
2019-03-27T01:17:46.977Z,9.80
2019-03-27T01:20:15.792Z,9.80
2019-03-27T01:22:44.726Z,9.80
2019-03-27T01:25:13.509Z,9.80
2019-03-27T01:27:42.309Z,9.80
2019-03-27T01:30:11.371Z,9.90
2019-03-27T01:32:40.177Z,9.90
2019-03-27T01:35:09.074Z,9.90
2019-03-27T01:37:37.930Z,9.90
2019-03-27T01:40:07.025Z,10.00
2019-03-27T01:42:37.057Z,10.00
2019-03-27T01:45:07.889Z,10.10
2019-03-27T01:47:36.711Z,10.10
2019-03-27T01:50:07.951Z,10.10
2019-03-27T01:52:36.799Z,10.10
2019-03-27T01:55:07.722Z,10.10
2019-03-27T01:57:36.524Z,10.10
2019-03-27T02:00:07.521Z,10.10
2019-03-27T02:02:36.427Z,10.20
2019-03-27T02:05:06.747Z,10.20
2019-03-27T02:07:35.782Z,10.20
2019-03-27T02:10:07.486Z,10.20
2019-03-27T02:12:36.216Z,10.20
2019-03-27T02:15:07.424Z,10.20
2019-03-27T02:17:36.350Z,10.20
2019-03-27T02:20:06.887Z,10.20
2019-03-27T02:22:35.748Z,10.20
2019-03-27T02:25:05.508Z,10.20
2019-03-27T02:27:34.422Z,10.20
2019-03-27T02:30:03.235Z,10.20
2019-03-27T02:32:32.059Z,10.20
2019-03-27T02:35:00.892Z,10.20
2019-03-27T02:37:29.699Z,10.20
2019-03-27T02:39:58.508Z,10.10
2019-03-27T02:42:27.342Z,10.10
2019-03-27T02:44:56.074Z,10.10
2019-03-27T02:47:25.037Z,10.10
2019-03-27T02:49:53.922Z,10.10
2019-03-27T02:52:22.729Z,10.10
2019-03-27T02:54:51.535Z,10.00
2019-03-27T02:57:20.360Z,10.00
2019-03-27T02:59:49.203Z,10.00
2019-03-27T03:02:18.038Z,10.00
2019-03-27T03:04:46.870Z,10.00
2019-03-27T03:07:15.690Z,10.00
2019-03-27T03:09:44.480Z,10.00
2019-03-27T03:12:13.242Z,10.00
2019-03-27T03:14:42.041Z,10.00
2019-03-27T03:17:11.678Z,10.00
2019-03-27T03:19:40.454Z,10.00
2019-03-27T03:22:09.286Z,10.00
2019-03-27T03:24:38.107Z,10.00
2019-03-27T03:27:06.932Z,9.90
2019-03-27T03:29:35.726Z,9.90
2019-03-27T03:32:04.576Z,9.90
2019-03-27T03:34:33.409Z,9.90
2019-03-27T03:37:02.203Z,9.90
2019-03-27T03:39:31.003Z,9.90
2019-03-27T03:41:59.841Z,9.90
2019-03-27T03:44:28.757Z,9.90
2019-03-27T03:46:59.975Z,9.90
2019-03-27T03:49:28.013Z,9.80
2019-03-27T03:51:56.813Z,9.80
2019-03-27T03:54:26.109Z,9.70
2019-03-27T03:56:56.442Z,9.70
2019-03-27T03:59:26.547Z,9.70
2019-03-27T04:01:55.352Z,9.60
2019-03-27T04:04:24.176Z,9.60
2019-03-27T04:06:52.989Z,9.60
2019-03-27T04:09:21.786Z,9.60
2019-03-27T04:11:50.618Z,9.60
2019-03-27T04:14:19.463Z,9.60
2019-03-27T04:16:48.303Z,9.60
2019-03-27T04:19:17.087Z,9.60
2019-03-27T04:21:47.919Z,9.60
2019-03-27T04:24:16.717Z,9.60
2019-03-27T04:26:45.543Z,9.50
2019-03-27T04:29:14.346Z,9.50
2019-03-27T04:31:43.158Z,9.50
2019-03-27T04:34:11.995Z,9.50
2019-03-27T04:36:41.148Z,9.50
2019-03-27T04:39:09.945Z,9.40
2019-03-27T04:41:38.878Z,9.40
2019-03-27T04:44:07.610Z,9.40
2019-03-27T04:46:36.423Z,9.40
2019-03-27T04:49:07.644Z,9.50
2019-03-27T04:51:35.685Z,9.50
2019-03-27T04:54:04.493Z,9.60
2019-03-27T04:56:33.315Z,9.50
2019-03-27T04:59:02.113Z,9.60
2019-03-27T05:01:30.946Z,9.70
2019-03-27T05:04:00.259Z,9.70
2019-03-27T05:06:29.065Z,9.70
2019-03-27T05:08:57.875Z,9.80
2019-03-27T05:11:26.699Z,9.80
2019-03-27T05:14:01.510Z,9.90
2019-03-27T05:16:30.323Z,9.90
2019-03-27T05:18:59.149Z,10.00
2019-03-27T05:21:27.964Z,10.00
2019-03-27T05:23:56.782Z,10.10
2019-03-27T05:26:25.722Z,10.10
2019-03-27T05:28:54.518Z,10.10
2019-03-27T05:31:23.316Z,10.10
2019-03-27T05:33:52.208Z,10.20
2019-03-27T05:36:21.018Z,10.20
2019-03-27T05:38:50.679Z,10.20
2019-03-27T05:41:19.513Z,10.10
2019-03-27T05:43:48.325Z,10.20
2019-03-27T05:46:17.131Z,10.10
2019-03-27T05:48:45.965Z,10.10
2019-03-27T05:51:14.805Z,10.20
2019-03-27T05:53:43.533Z,10.20
2019-03-27T05:56:12.368Z,10.20
2019-03-27T05:58:41.198Z,10.20
2019-03-27T06:01:10.016Z,10.20
2019-03-27T06:03:38.840Z,10.20
2019-03-27T06:06:07.644Z,10.20
2019-03-27T06:08:36.453Z,10.20
2019-03-27T06:11:05.294Z,10.20
2019-03-27T06:13:34.106Z,10.20
2019-03-27T06:16:02.939Z,10.20
2019-03-27T06:18:31.765Z,10.20
2019-03-27T06:21:00.621Z,10.20
2019-03-27T06:23:29.321Z,10.20
2019-03-27T06:25:58.151Z,10.20
2019-03-27T06:28:26.957Z,10.30
2019-03-27T06:30:55.761Z,10.30
2019-03-27T06:33:24.623Z,10.40
2019-03-27T06:35:53.464Z,10.40
2019-03-27T06:38:22.279Z,10.40
2019-03-27T06:40:51.119Z,10.40
2019-03-27T06:43:19.913Z,10.40
2019-03-27T06:45:48.726Z,10.40
2019-03-27T06:48:26.260Z,10.40
2019-03-27T06:50:48.028Z,10.50
2019-03-27T06:53:16.847Z,10.50
2019-03-27T06:55:45.685Z,10.60
2019-03-27T06:58:14.623Z,10.60
2019-03-27T07:00:43.430Z,10.60
2019-03-27T07:03:12.295Z,10.60
2019-03-27T07:05:41.095Z,10.70
2019-03-27T07:08:09.914Z,10.70
2019-03-27T07:10:38.776Z,10.70
2019-03-27T07:13:07.784Z,10.80
2019-03-27T07:15:36.651Z,10.90
2019-03-27T07:18:05.472Z,10.90
2019-03-27T07:20:34.273Z,11.00
2019-03-27T07:23:03.084Z,11.00
2019-03-27T07:25:31.934Z,11.00
2019-03-27T07:28:02.495Z,11.10
2019-03-27T07:30:31.238Z,11.10
2019-03-27T07:33:00.010Z,11.10
2019-03-27T07:35:28.842Z,11.10
2019-03-27T07:37:57.657Z,11.10
2019-03-27T07:40:26.502Z,11.10
2019-03-27T07:42:55.316Z,11.20
2019-03-27T07:45:24.128Z,11.10
2019-03-27T07:47:52.962Z,11.10
2019-03-27T07:50:21.777Z,11.10
2019-03-27T07:52:50.593Z,11.10
2019-03-27T07:55:20.023Z,11.10
2019-03-27T07:57:48.979Z,11.20
2019-03-27T08:00:20.688Z,11.10
2019-03-27T08:02:49.543Z,11.20
2019-03-27T08:05:18.360Z,11.20
2019-03-27T08:07:47.157Z,11.30
2019-03-27T08:10:16.020Z,11.40
2019-03-27T08:12:44.818Z,11.40
2019-03-27T08:15:14.128Z,11.40
2019-03-27T08:17:42.964Z,11.50
2019-03-27T08:20:12.474Z,11.50
2019-03-27T08:22:41.290Z,11.60
2019-03-27T08:25:11.835Z,11.60
2019-03-27T08:27:40.609Z,11.60
2019-03-27T08:30:14.100Z,11.50
2019-03-27T08:32:42.922Z,11.60
2019-03-27T08:35:12.122Z,11.60
2019-03-27T08:37:40.950Z,11.70
2019-03-27T08:40:11.350Z,11.70
2019-03-27T08:42:59.305Z,11.80
2019-03-27T08:45:25.801Z,11.90
2019-03-27T08:47:54.610Z,12.00
2019-03-27T08:50:23.418Z,12.00
2019-03-27T08:52:52.249Z,12.10
2019-03-27T08:55:21.052Z,12.20
2019-03-27T09:07:53.931Z,12.40
2019-03-27T09:10:23.081Z,12.40
2019-03-27T09:12:52.123Z,12.40
2019-03-27T09:15:21.072Z,12.50
2019-03-27T09:17:49.880Z,12.70
2019-03-27T09:20:18.807Z,12.80
2019-03-27T09:22:47.646Z,12.90
2019-03-27T09:25:16.450Z,12.90
2019-03-27T09:27:45.253Z,12.90
2019-03-27T09:30:14.793Z,13.00
2019-03-27T09:32:43.607Z,13.00
2019-03-27T09:35:12.641Z,13.00
2019-03-27T09:37:41.474Z,13.00
2019-03-27T09:40:11.332Z,13.00
2019-03-27T09:42:40.128Z,12.90
2019-03-27T09:45:10.196Z,13.00
2019-03-27T09:47:39.067Z,13.10
2019-03-27T09:50:08.225Z,13.00
2019-03-27T09:52:37.065Z,13.20
2019-03-27T09:55:06.722Z,13.30
2019-03-27T09:57:35.540Z,13.20
2019-03-27T10:00:07.363Z,13.40
2019-03-27T10:02:36.170Z,13.40
2019-03-27T10:05:07.259Z,13.30
2019-03-27T10:07:36.110Z,13.50
2019-03-27T10:10:07.135Z,13.60
2019-03-27T10:12:35.931Z,13.70
2019-03-27T10:15:07.664Z,13.70
2019-03-27T10:17:36.507Z,13.80
2019-03-27T10:20:07.187Z,13.70
2019-03-27T10:22:36.028Z,13.90
2019-03-27T10:25:07.597Z,13.90
2019-03-27T10:27:36.403Z,13.80
2019-03-27T10:30:07.271Z,13.70
2019-03-27T10:32:36.110Z,13.90
2019-03-27T10:35:06.611Z,14.00
2019-03-27T10:37:35.456Z,14.20
2019-03-27T10:40:07.978Z,14.30
2019-03-27T10:42:36.785Z,14.30
2019-03-27T10:45:08.696Z,14.30
2019-03-27T10:47:37.508Z,14.30
2019-03-27T10:50:16.967Z,14.30
2019-03-27T10:52:37.686Z,14.20
2019-03-27T10:55:06.607Z,14.30
2019-03-27T10:57:35.417Z,14.30
2019-03-27T11:00:10.283Z,14.40
2019-03-27T11:02:39.095Z,14.40
2019-03-27T11:05:08.242Z,14.40
2019-03-27T11:07:37.052Z,14.40
2019-03-27T11:10:07.962Z,14.60
2019-03-27T11:12:36.851Z,14.50
2019-03-27T11:15:07.880Z,14.50
2019-03-27T11:17:36.669Z,14.50
2019-03-27T11:20:06.279Z,14.50
2019-03-27T11:22:35.116Z,14.80
2019-03-27T11:25:04.526Z,15.00
2019-03-27T11:27:33.331Z,15.00
2019-03-27T11:30:03.073Z,15.20
2019-03-27T11:32:31.885Z,15.10
2019-03-27T11:35:00.685Z,14.80
2019-03-27T11:37:29.517Z,14.80
2019-03-27T11:39:58.335Z,15.10
2019-03-27T11:42:27.135Z,15.00
2019-03-27T11:44:55.977Z,15.10
2019-03-27T11:47:24.899Z,15.00
2019-03-27T11:49:53.847Z,15.10
2019-03-27T11:52:22.631Z,14.90
2019-03-27T11:54:51.471Z,14.70
2019-03-27T11:57:20.275Z,14.90
2019-03-27T11:59:54.247Z,14.90
2019-03-27T12:02:21.197Z,14.90
2019-03-27T12:04:49.989Z,14.90
2019-03-27T12:07:18.822Z,14.90
2019-03-27T12:09:47.645Z,15.00
2019-03-27T12:12:16.454Z,14.90
2019-03-27T12:14:45.289Z,14.90
2019-03-27T12:17:14.114Z,15.10
2019-03-27T12:19:43.027Z,14.90
2019-03-27T12:22:11.826Z,14.70
2019-03-27T12:24:40.708Z,14.60
2019-03-27T12:27:09.524Z,14.60
2019-03-27T12:29:38.332Z,14.70
2019-03-27T12:32:07.165Z,14.80
2019-03-27T12:34:36.941Z,14.80
2019-03-27T12:37:05.994Z,14.70
2019-03-27T12:39:34.747Z,14.30
2019-03-27T12:42:03.538Z,14.60
2019-03-27T12:44:32.351Z,14.80
2019-03-27T12:47:01.184Z,14.90
2019-03-27T12:49:29.984Z,14.90
2019-03-27T12:51:58.792Z,14.70
2019-03-27T12:54:28.502Z,14.70
2019-03-27T12:56:57.304Z,14.80
2019-03-27T12:59:27.433Z,15.00
2019-03-27T13:01:56.271Z,15.10
2019-03-27T13:04:26.118Z,15.00
2019-03-27T13:06:54.946Z,15.00
2019-03-27T13:09:24.772Z,15.20
2019-03-27T13:11:53.520Z,15.30
2019-03-27T13:14:22.322Z,15.20
2019-03-27T13:16:52.395Z,15.20
2019-03-27T13:19:21.362Z,15.20
2019-03-27T13:21:50.164Z,15.20
2019-03-27T13:24:19.032Z,15.20
2019-03-27T13:26:47.839Z,15.00
2019-03-27T13:29:16.649Z,15.20
2019-03-27T13:31:45.499Z,15.40
2019-03-27T13:34:14.307Z,15.60
2019-03-27T13:36:44.689Z,15.40
2019-03-27T13:39:13.533Z,15.30
2019-03-27T13:41:42.407Z,15.40
2019-03-27T13:44:11.217Z,15.40
2019-03-27T13:46:40.062Z,15.50
2019-03-27T13:49:08.847Z,15.50
2019-03-27T13:51:40.839Z,15.60
2019-03-27T13:54:08.244Z,15.70
2019-03-27T13:56:37.042Z,15.50
2019-03-27T13:59:05.877Z,15.40
2019-03-27T14:01:34.717Z,15.50
2019-03-27T14:04:03.554Z,15.60
2019-03-27T14:06:32.359Z,15.50
2019-03-27T14:09:02.502Z,15.60
2019-03-27T14:11:31.354Z,15.50
2019-03-27T14:14:10.626Z,15.60
2019-03-27T14:16:30.758Z,15.60
2019-03-27T14:19:00.755Z,15.70
2019-03-27T14:21:29.609Z,15.70
2019-03-27T14:23:58.414Z,15.50
2019-03-27T14:26:28.951Z,15.40
2019-03-27T14:28:57.773Z,15.50
2019-03-27T14:31:26.601Z,15.50
2019-03-27T14:33:55.422Z,15.20
2019-03-27T14:36:24.379Z,15.00
2019-03-27T14:38:53.220Z,14.90
2019-03-27T14:41:22.035Z,15.00
2019-03-27T14:43:50.836Z,15.10
2019-03-27T14:46:19.662Z,15.00
2019-03-27T14:48:48.482Z,15.10
2019-03-27T14:51:17.290Z,15.00
2019-03-27T14:53:46.271Z,14.90
2019-03-27T14:56:15.065Z,14.90
2019-03-27T14:58:43.973Z,14.90
2019-03-27T15:01:12.829Z,14.80
2019-03-27T15:03:41.636Z,14.80
2019-03-27T15:06:10.442Z,14.90
2019-03-27T15:08:39.286Z,14.90
2019-03-27T15:11:08.109Z,14.90
2019-03-27T15:13:36.899Z,14.90
2019-03-27T15:16:05.729Z,15.00
2019-03-27T15:18:36.259Z,15.10
2019-03-27T15:21:05.047Z,15.20
2019-03-27T15:23:33.887Z,15.30
2019-03-27T15:26:02.700Z,15.40
2019-03-27T15:28:31.501Z,15.40
2019-03-27T15:31:00.327Z,15.40
2019-03-27T15:33:29.147Z,15.20
2019-03-27T15:35:58.008Z,15.00
2019-03-27T15:38:26.863Z,15.20
2019-03-27T15:40:55.775Z,15.30
2019-03-27T15:43:24.549Z,15.40
2019-03-27T15:45:53.381Z,15.30
2019-03-27T15:48:22.214Z,15.30
2019-03-27T15:50:58.407Z,15.10
2019-03-27T15:53:21.590Z,15.10
2019-03-27T15:55:50.398Z,15.20
2019-03-27T15:58:19.213Z,15.20
2019-03-27T16:00:48.138Z,15.20
2019-03-27T16:03:17.106Z,15.30
2019-03-27T16:05:46.024Z,15.10
2019-03-27T16:08:14.958Z,15.20
2019-03-27T16:10:43.814Z,15.20
2019-03-27T16:13:12.648Z,15.10
2019-03-27T16:15:41.486Z,14.90
2019-03-27T16:18:29.632Z,15.00
2019-03-27T16:20:58.495Z,15.00
2019-03-27T16:23:27.701Z,14.90
2019-03-27T16:25:56.493Z,14.80
2019-03-27T16:28:25.326Z,14.80
2019-03-27T16:30:55.541Z,14.80
2019-03-27T16:33:24.552Z,14.60
2019-03-27T16:35:53.415Z,14.60
2019-03-27T16:38:22.257Z,14.50
2019-03-27T16:40:51.070Z,14.70
2019-03-27T16:43:19.999Z,14.50
2019-03-27T16:45:49.403Z,14.30
2019-03-27T16:48:18.234Z,14.20
2019-03-27T16:50:47.178Z,14.10
2019-03-27T16:53:16.178Z,14.10
2019-03-27T16:55:45.002Z,14.10
2019-03-27T16:58:13.898Z,14.10
2019-03-27T17:00:42.709Z,14.10
2019-03-27T17:03:11.623Z,14.00
2019-03-27T17:05:52.964Z,14.00
2019-03-27T17:08:10.951Z,14.00
2019-03-27T17:10:39.750Z,13.90
2019-03-27T17:13:08.594Z,13.80
2019-03-27T17:15:37.508Z,13.70
2019-03-27T17:18:06.323Z,13.80
2019-03-27T17:20:35.203Z,13.80
2019-03-27T17:23:17.028Z,13.70
2019-03-27T17:25:34.490Z,13.70
2019-03-27T17:28:03.314Z,13.70
2019-03-27T17:30:32.215Z,13.60
2019-03-27T17:33:01.063Z,13.70
2019-03-27T17:35:29.894Z,13.60
2019-03-27T17:37:58.697Z,13.50
2019-03-27T17:40:27.501Z,13.40
2019-03-27T17:42:56.403Z,13.50
2019-03-27T17:45:25.220Z,13.50
2019-03-27T17:47:54.081Z,13.50
2019-03-27T17:50:22.929Z,13.50
2019-03-27T17:52:51.753Z,13.50
2019-03-27T17:55:20.643Z,13.50
2019-03-27T17:57:50.550Z,13.40
2019-03-27T18:00:39.052Z,13.30
2019-03-27T18:03:07.840Z,13.30
2019-03-27T18:05:38.654Z,13.20
2019-03-27T18:08:07.771Z,13.10
2019-03-27T18:10:36.585Z,13.00
2019-03-27T18:13:05.434Z,13.00
2019-03-27T18:15:34.279Z,12.80
2019-03-27T18:18:03.084Z,12.80
2019-03-27T18:20:31.891Z,12.70
2019-03-27T18:23:00.655Z,12.60
2019-03-27T18:25:29.470Z,12.60
2019-03-27T18:28:00.151Z,12.60
2019-03-27T18:30:29.019Z,12.50
2019-03-27T18:32:57.824Z,12.50
2019-03-27T18:35:26.618Z,12.40
2019-03-27T18:37:55.481Z,12.30
2019-03-27T18:40:24.299Z,12.20
2019-03-27T18:42:54.586Z,12.10
2019-03-27T18:45:23.437Z,12.00
2019-03-27T18:47:52.248Z,12.00
2019-03-27T18:50:23.249Z,11.90
2019-03-27T18:52:52.102Z,11.80
2019-03-27T18:55:26.346Z,11.80
2019-03-27T18:58:00.078Z,11.70
2019-03-27T19:00:24.117Z,11.70
2019-03-27T19:02:52.982Z,11.60
2019-03-27T19:05:21.840Z,11.60
2019-03-27T19:07:50.683Z,11.60
2019-03-27T19:10:19.543Z,11.50
2019-03-27T19:12:48.340Z,11.50
2019-03-27T19:15:17.169Z,11.50
2019-03-27T19:17:45.970Z,11.40
2019-03-27T19:20:14.993Z,11.40
2019-03-27T19:22:43.840Z,11.30
2019-03-27T19:25:12.850Z,11.30
2019-03-27T19:27:41.671Z,11.30
2019-03-27T19:30:11.427Z,11.30
2019-03-27T19:32:40.251Z,11.20
2019-03-27T19:35:09.169Z,11.20
2019-03-27T19:37:38.016Z,11.20
2019-03-27T19:40:07.137Z,11.10
2019-03-27T19:42:36.951Z,11.10
2019-03-27T19:45:07.086Z,11.10
2019-03-27T19:47:35.885Z,11.10
2019-03-27T19:50:06.403Z,11.10
2019-03-27T19:52:35.251Z,11.00
2019-03-27T19:55:04.660Z,11.00
2019-03-27T19:57:33.471Z,10.90
2019-03-27T20:00:02.561Z,11.00
2019-03-27T20:02:31.358Z,10.90
2019-03-27T20:05:00.352Z,10.90
2019-03-27T20:07:35.828Z,10.90
2019-03-27T20:10:00.394Z,10.90
2019-03-27T20:12:29.185Z,10.80
2019-03-27T20:15:10.862Z,10.80
2019-03-27T20:17:29.502Z,10.80
2019-03-27T20:19:58.389Z,10.80
2019-03-27T20:22:27.248Z,10.80
2019-03-27T20:24:56.079Z,10.70
2019-03-27T20:27:24.877Z,10.70
2019-03-27T20:29:53.720Z,10.60
2019-03-27T20:32:22.523Z,10.60
2019-03-27T20:34:51.342Z,10.60
2019-03-27T20:37:20.169Z,10.70
2019-03-27T20:39:48.983Z,10.80
2019-03-27T20:42:17.832Z,10.70
2019-03-27T20:44:46.678Z,10.70
2019-03-27T20:47:15.487Z,10.70
2019-03-27T20:49:44.288Z,10.60
2019-03-27T20:52:13.147Z,10.50
2019-03-27T20:54:54.402Z,10.50
2019-03-27T20:57:12.431Z,10.40
2019-03-27T20:59:41.275Z,10.40
2019-03-27T21:02:10.071Z,10.30
2019-03-27T21:04:38.993Z,10.30
2019-03-27T21:07:07.871Z,10.30
2019-03-27T21:09:36.761Z,10.30
2019-03-27T21:12:06.006Z,10.20
2019-03-27T21:14:36.188Z,10.20
2019-03-27T21:17:05.066Z,10.10
2019-03-27T21:19:36.130Z,10.10
2019-03-27T21:22:04.496Z,10.10
2019-03-27T21:24:33.338Z,10.10
2019-03-27T21:27:02.147Z,10.00
2019-03-27T21:29:30.949Z,10.00
2019-03-27T21:31:59.879Z,9.90
2019-03-27T21:34:28.699Z,9.90
2019-03-27T21:36:57.504Z,9.90
2019-03-27T21:39:26.345Z,9.90
2019-03-27T21:41:55.154Z,9.80
2019-03-27T21:44:23.938Z,9.80
2019-03-27T21:46:52.744Z,9.80
2019-03-27T21:49:21.578Z,9.70
2019-03-27T21:51:50.391Z,9.70
2019-03-27T21:54:19.199Z,9.70
2019-03-27T21:56:48.035Z,9.70
2019-03-27T21:59:16.851Z,9.70
2019-03-27T22:01:45.727Z,9.60
2019-03-27T22:04:14.709Z,9.60
2019-03-27T22:06:43.526Z,9.60
2019-03-27T22:09:12.334Z,9.60
2019-03-27T22:11:41.171Z,9.60
2019-03-27T22:14:10.310Z,9.50
2019-03-27T22:16:39.105Z,9.50
2019-03-27T22:19:07.999Z,9.50
2019-03-27T22:21:36.763Z,9.50
2019-03-27T22:24:05.569Z,9.50
2019-03-27T22:26:34.398Z,9.40
2019-03-27T22:29:03.364Z,9.40
2019-03-27T22:31:32.104Z,9.40
2019-03-27T22:34:01.043Z,9.40
2019-03-27T22:36:29.811Z,9.40
2019-03-27T22:38:58.619Z,9.30
2019-03-27T22:41:27.483Z,9.30
2019-03-27T22:43:56.285Z,9.30
2019-03-27T22:46:25.087Z,9.30
2019-03-27T22:48:53.982Z,9.30
2019-03-27T22:51:25.671Z,9.20
2019-03-27T22:53:54.473Z,9.20
2019-03-27T22:56:23.298Z,9.20
2019-03-27T22:58:52.103Z,9.20
2019-03-27T23:01:20.909Z,9.10
2019-03-27T23:03:49.843Z,9.10
2019-03-27T23:06:18.660Z,9.10
2019-03-27T23:08:47.459Z,9.10
2019-03-27T23:11:16.289Z,9.10
2019-03-27T23:13:45.098Z,9.10
2019-03-27T23:16:13.886Z,9.00
2019-03-27T23:18:42.803Z,9.00
2019-03-27T23:21:11.604Z,9.00
2019-03-27T23:23:40.403Z,9.00
2019-03-27T23:26:09.241Z,9.00
2019-03-27T23:28:38.090Z,8.90
2019-03-27T23:31:06.911Z,8.90
2019-03-27T23:33:35.740Z,8.90
2019-03-27T23:36:04.619Z,8.80
2019-03-27T23:38:34.899Z,8.80
2019-03-27T23:41:03.727Z,8.80
2019-03-27T23:43:32.525Z,8.70
2019-03-27T23:46:01.431Z,8.70
2019-03-27T23:48:30.254Z,8.70
2019-03-27T23:50:59.058Z,8.70
2019-03-27T23:53:27.902Z,8.60
2019-03-27T23:55:56.687Z,8.60
2019-03-27T23:58:25.496Z,8.60
